Time;durP1;ratioP1;P1;durP2;ratioP2;P2;SDS_P1;SDS_P2;PMS_P1;PMS_P2;Temp;Humidity;BMP_temperature;BMP_pressure;BME280_temperature;BME280_humidity;BME280_pressure;Samples;Min_cycle;Max_cycle;Signal;HPM_P1;HPM_P2
2022/08/16 00:02:10;;;;;;;7.00;3.57;;;;;;;25.63;50.58;98316.88;6161503;23;20158;-90
2022/08/16 00:04:38;;;;;;;6.70;3.47;;;;;;;25.64;50.62;98324.75;6161164;23;20158;-89
2022/08/16 00:07:07;;;;;;;7.00;2.87;;;;;;;25.64;50.08;98323.91;6187377;23;20233;-89
2022/08/16 00:09:35;;;;;;;6.60;3.77;;;;;;;25.55;50.07;98322.41;6160687;23;20154;-89
2022/08/16 00:12:06;;;;;;;5.43;3.20;;;;;;;25.57;50.01;98323.03;6161323;23;20241;-89
2022/08/16 00:14:33;;;;;;;7.17;3.70;;;;;;;25.60;49.52;98323.44;6187265;23;20138;-89
2022/08/16 00:17:01;;;;;;;6.13;3.10;;;;;;;25.56;49.89;98319.50;6160717;23;20170;-89
2022/08/16 00:19:36;;;;;;;6.03;3.80;;;;;;;25.52;50.12;98322.78;6160989;23;20457;-89
2022/08/16 00:22:07;;;;;;;11.37;3.60;;;;;;;25.45;50.33;98327.22;6160684;23;20146;-89
2022/08/16 00:27:45;;;;;;;6.53;3.20;;;;;;;25.42;49.64;98322.28;6186751;23;20147;-90
2022/08/16 00:30:17;;;;;;;6.40;3.63;;;;;;;25.39;49.71;98320.78;6160479;23;20586;-89
2022/08/16 00:33:33;;;;;;;;;;;;;;;;;;;;;
2022/08/16 00:36:46;;;;;;;;;;;;;;;;;;;;;
2022/08/16 00:39:31;;;;;;;7.07;3.63;;;;;;;25.28;50.61;98340.09;6179238;23;20151;-89
2022/08/16 00:42:09;;;;;;;;;;;;;;;;;;;;;
2022/08/16 00:45:20;;;;;;;6.10;3.70;;;;;;;25.29;50.92;98346.31;6187557;23;20213;-89
2022/08/16 00:47:55;;;;;;;6.57;3.83;;;;;;;25.18;51.09;98357.53;6180515;23;20150;-89
2022/08/16 00:50:43;;;;;;;;;;;;;;;;;;;;;
2022/08/16 00:57:11;;;;;;;;;;;;;;;;;;;;;
2022/08/16 01:00:27;;;;;;;6.23;4.07;;;;;;;24.96;51.75;98365.56;6181342;23;20245;-89
2022/08/16 01:06:35;;;;;;;;;;;;;;;;;;;;;
2022/08/16 01:09:27;;;;;;;;;;;;;;;;;;;;;
2022/08/16 01:12:20;;;;;;;5.97;3.23;;;;;;;24.88;52.19;98381.78;6185037;23;20246;-89
2022/08/16 01:14:53;;;;;;;7.23;3.17;;;;;;;24.93;51.89;98386.56;6160467;23;20174;-88
2022/08/16 01:17:28;;;;;;;6.97;3.43;;;;;;;24.88;51.98;98381.78;6160184;23;20161;-89
2022/08/16 01:20:02;;;;;;;6.83;3.67;;;;;;;24.84;52.44;98391.19;6160759;23;20224;-89
2022/08/16 01:22:40;;;;;;;7.97;3.63;;;;;;;24.91;52.07;98383.25;6186748;23;20523;-89
2022/08/16 01:25:14;;;;;;;7.10;3.57;;;;;;;24.77;52.92;98398.31;6159768;23;20221;-89
2022/08/16 01:27:52;;;;;;;6.30;3.50;;;;;;;24.66;53.00;98384.59;6186733;23;20150;-89
2022/08/16 01:30:29;;;;;;;7.50;2.77;;;;;;;24.70;53.25;98386.69;6159909;23;20178;-89
2022/08/16 01:33:11;;;;;;;9.30;3.60;;;;;;;24.58;53.88;98376.66;6185688;23;20162;-89
2022/08/16 01:35:46;;;;;;;6.93;2.97;;;;;;;24.62;53.61;98370.72;6161250;23;20153;-89
2022/08/16 01:38:38;;;;;;;7.23;3.20;;;;;;;24.55;54.08;98375.16;6160301;23;20146;-89
2022/08/16 01:41:08;;;;;;;8.00;3.93;;;;;;;24.47;54.49;98380.63;6160171;23;20150;-88
2022/08/16 01:44:01;;;;;;;6.17;3.03;;;;;;;24.48;54.61;98390.31;6159915;23;20157;-89
2022/08/16 01:47:20;;;;;;;8.80;3.60;;;;;;;24.49;54.37;98383.94;6159901;23;20146;-89
2022/08/16 01:49:56;;;;;;;7.07;3.53;;;;;;;24.49;54.71;98377.75;6147810;23;20158;-88
2022/08/16 01:52:22;;;;;;;5.80;3.20;;;;;;;24.47;54.75;98377.94;6159735;23;20181;-88
2022/08/16 01:55:28;;;;;;;;;;;;;;;;;;;;;
2022/08/16 02:04:14;;;;;;;;;;;;;;;;;;;;;
2022/08/16 02:07:11;;;;;;;6.17;3.33;;;;;;;24.19;55.75;98380.44;6185975;23;20222;-89
2022/08/16 02:13:45;;;;;;;;;;;;;;;;;;;;;
2022/08/16 02:16:26;;;;;;;;;;;;;;;;;;;;;
2022/08/16 02:19:21;;;;;;;;;;;;;;;;;;;;;
2022/08/16 02:22:00;;;;;;;9.97;3.43;;;;;;;24.19;56.13;98375.09;6185854;23;20522;-88
2022/08/16 02:24:33;;;;;;;8.03;4.00;;;;;;;24.08;56.42;98388.94;6185587;23;20138;-88
2022/08/16 02:27:09;;;;;;;7.47;3.83;;;;;;;24.04;57.14;98390.28;6186393;23;20558;-88
2022/08/16 02:29:35;;;;;;;6.30;3.40;;;;;;;24.04;56.92;98402.84;6159766;23;20153;-88
2022/08/16 02:32:10;;;;;;;6.27;3.63;;;;;;;24.05;56.74;98400.00;6160477;23;20169;-89
2022/08/16 02:34:43;;;;;;;7.03;3.73;;;;;;;24.02;56.20;98405.72;6185104;23;20183;-88
2022/08/16 02:37:19;;;;;;;7.57;3.70;;;;;;;24.11;55.87;98398.47;6160828;23;20446;-88
2022/08/16 02:40:20;;;;;;;5.83;3.93;;;;;;;24.17;55.45;98395.88;6160220;23;20535;-89
2022/08/16 02:43:24;;;;;;;7.83;4.20;;;;;;;24.16;55.22;98402.22;6185439;23;20596;-89
2022/08/16 02:46:24;;;;;;;;;;;;;;;;;;;;;
2022/08/16 02:49:03;;;;;;;8.20;4.17;;;;;;;24.04;55.86;98392.13;6185717;23;20234;-88
2022/08/16 02:52:09;;;;;;;;;;;;;;;;;;;;;
2022/08/16 02:58:15;;;;;;;;;;;;;;;;;;;;;
2022/08/16 03:00:56;;;;;;;10.20;4.87;;;;;;;24.03;55.50;98393.16;6180760;23;20578;-89
2022/08/16 03:06:50;;;;;;;7.57;4.50;;;;;;;24.00;55.85;98390.84;6174455;23;20154;-89
2022/08/16 03:13:37;;;;;;;;;;;;;;;;;;;;;
2022/08/16 03:16:59;;;;;;;;;;;;;;;;;;;;;
2022/08/16 03:19:54;;;;;;;;;;;;;;;;;;;;;
2022/08/16 03:22:56;;;;;;;;;;;;;;;;;;;;;
2022/08/16 03:29:27;;;;;;;;;;;;;;;;;;;;;
2022/08/16 03:32:43;;;;;;;;;;;;;;;;;;;;;
2022/08/16 03:35:42;;;;;;;10.80;4.70;;;;;;;23.84;55.95;98427.47;6186588;23;20257;-89
2022/08/16 03:38:19;;;;;;;7.37;3.80;;;;;;;23.83;55.79;98433.00;6187515;23;20151;-88
2022/08/16 03:41:02;;;;;;;7.37;3.80;;;;;;;23.83;55.46;98433.84;6187717;23;20188;-89
2022/08/16 03:43:34;;;;;;;8.67;4.20;;;;;;;23.87;55.81;98428.13;6162025;23;20151;-88
2022/08/16 03:46:09;;;;;;;7.20;4.17;;;;;;;23.75;56.31;98441.94;6160443;23;20242;-89
2022/08/16 03:48:38;;;;;;;8.17;3.37;;;;;;;23.71;56.69;98434.47;6160712;23;20237;-88
2022/08/16 03:51:10;;;;;;;11.63;4.53;;;;;;;23.64;57.01;98433.50;6186782;23;20225;-88
2022/08/16 03:56:31;;;;;;;6.07;3.70;;;;;;;23.59;57.76;98430.53;6170576;23;20616;-88
2022/08/16 03:59:02;;;;;;;8.00;3.70;;;;;;;23.59;57.86;98446.59;6160732;23;20150;-88
2022/08/16 04:01:30;;;;;;;7.33;3.90;;;;;;;23.58;58.60;98437.75;6161123;23;20154;-89
2022/08/16 04:03:56;;;;;;;7.80;3.67;;;;;;;23.64;58.37;98439.69;6160839;23;20154;-89
2022/08/16 04:06:51;;;;;;;7.07;3.53;;;;;;;23.77;58.26;98433.72;6161002;23;20197;-88
2022/08/16 04:09:42;;;;;;;7.10;3.83;;;;;;;23.77;58.21;98442.59;6186997;23;20154;-89
2022/08/16 04:15:19;;;;;;;7.60;3.60;;;;;;;23.87;58.07;98437.00;6144371;23;20597;-88
2022/08/16 04:17:44;;;;;;;6.13;3.47;;;;;;;23.89;57.51;98443.00;6160371;23;20155;-88
2022/08/16 04:20:12;;;;;;;6.60;3.60;;;;;;;23.94;57.04;98451.31;6186966;23;20213;-88
2022/08/16 04:22:42;;;;;;;6.77;4.03;;;;;;;23.93;57.54;98438.91;6160664;23;20213;-89
2022/08/16 04:25:09;;;;;;;8.30;3.90;;;;;;;24.08;56.70;98439.81;6186884;23;20213;-88
2022/08/16 04:27:39;;;;;;;7.67;4.50;;;;;;;23.94;56.98;98437.09;6160949;23;20165;-88
2022/08/16 04:30:11;;;;;;;7.27;4.23;;;;;;;24.06;57.02;98438.28;6186207;23;20150;-88
2022/08/16 04:32:37;;;;;;;6.60;4.10;;;;;;;24.18;57.16;98437.72;6160425;23;20222;-88
2022/08/16 04:35:12;;;;;;;6.47;3.90;;;;;;;24.27;56.72;98444.63;6186135;23;20635;-88
2022/08/16 04:37:40;;;;;;;6.80;3.70;;;;;;;24.37;56.39;98447.88;6161345;23;20205;-88
2022/08/16 04:40:08;;;;;;;7.10;3.67;;;;;;;24.41;56.64;98442.97;6160039;23;20165;-88
2022/08/16 04:42:37;;;;;;;6.90;3.27;;;;;;;24.54;56.03;98437.81;6160362;23;20150;-88
2022/08/16 04:45:03;;;;;;;8.93;4.63;;;;;;;24.66;56.10;98439.00;6160680;23;20157;-88
2022/08/16 04:47:33;;;;;;;6.77;3.97;;;;;;;24.71;56.18;98433.09;6160193;23;20190;-88
2022/08/16 04:50:04;;;;;;;8.90;3.40;;;;;;;24.76;56.51;98442.25;6159771;23;20143;-88
2022/08/16 04:52:32;;;;;;;6.60;3.50;;;;;;;24.97;55.54;98436.13;6186877;23;20571;-88
2022/08/16 04:55:37;;;;;;;;;;;;;;;;;;;;;
2022/08/16 04:59:11;;;;;;;;;;;;;;;;;;;;;
2022/08/16 05:15:55;;;;;;;12.30;4.20;;;;;;;25.80;55.34;98428.31;5916901;24;20570;-90
2022/08/16 05:48:11;;;;;;;;;;;;;;;;;;;;;
2022/08/16 06:20:12;;;;;;;;;;;;;;;;;;;;;
2022/08/16 06:27:00;;;;;;;;;;;;;;;;;;;;;
2022/08/16 06:34:16;;;;;;;;;;;;;;;;;;;;;
2022/08/16 07:53:05;;;;;;;;;;;;;;;;;;;;;
2022/08/16 08:42:27;;;;;;;5.10;3.22;;;;;;;37.15;28.48;98382.63;5754222;24;20204;-88
2022/08/16 08:45:31;;;;;;;5.22;3.13;;;;;;;37.19;28.28;98390.00;5817361;24;20167;-91
2022/08/16 08:48:27;;;;;;;;;;;;;;;;;;;;;
2022/08/16 08:50:53;;;;;;;6.30;3.08;;;;;;;36.97;27.79;98372.19;5909765;24;20283;-89
2022/08/16 08:53:25;;;;;;;4.20;2.83;;;;;;;37.20;27.95;98382.63;5945530;23;20618;-90
2022/08/16 08:56:24;;;;;;;4.88;2.80;;;;;;;37.23;25.77;98372.00;6108794;23;20179;-89
2022/08/16 08:59:05;;;;;;;4.90;2.72;;;;;;;37.36;26.33;98376.09;6131750;23;20190;-90
2022/08/16 09:01:42;;;;;;;4.68;2.80;;;;;;;37.50;27.49;98377.25;6130810;23;20163;-89
2022/08/16 09:04:16;;;;;;;5.63;3.15;;;;;;;37.69;26.69;98372.88;6130629;23;20233;-88
2022/08/16 09:06:44;;;;;;;4.55;2.97;;;;;;;37.78;27.23;98368.50;6130041;23;20226;-89
2022/08/16 09:09:15;;;;;;;5.35;2.83;;;;;;;37.66;26.62;98372.63;6156326;23;20151;-89
2022/08/16 09:11:47;;;;;;;4.60;2.80;;;;;;;37.96;26.54;98367.97;6131455;23;20297;-90
2022/08/16 09:14:15;;;;;;;5.00;2.83;;;;;;;37.76;26.02;98357.00;6130746;23;20159;-90
2022/08/16 09:16:43;;;;;;;5.10;3.13;;;;;;;37.82;26.73;98366.84;6156469;23;20478;-89
2022/08/16 09:19:09;;;;;;;6.72;3.22;;;;;;;38.03;27.50;98363.03;6156477;23;20158;-89
2022/08/16 09:22:10;;;;;;;4.38;2.88;;;;;;;38.13;27.61;98360.25;6130752;23;20182;-91
2022/08/16 09:24:38;;;;;;;4.85;3.00;;;;;;;38.13;27.02;98368.47;6097720;23;20559;-89
2022/08/16 09:27:09;;;;;;;5.63;2.97;;;;;;;38.27;25.94;98351.47;6130677;23;20237;-88
2022/08/16 09:29:35;;;;;;;4.65;2.88;;;;;;;38.38;26.33;98350.38;6156574;23;20239;-90
2022/08/16 09:32:00;;;;;;;5.53;3.40;;;;;;;38.05;26.37;98355.34;6130482;23;20157;-88
2022/08/16 09:34:26;;;;;;;7.57;3.47;;;;;;;38.22;25.33;98351.47;6156735;23;20148;-89
2022/08/16 09:36:56;;;;;;;4.38;2.58;;;;;;;38.27;25.20;98348.72;6156338;23;20739;-88
2022/08/16 09:39:47;;;;;;;3.60;2.25;;;;;;;38.45;25.34;98359.09;6156636;23;20141;-89
2022/08/16 09:42:22;;;;;;;4.60;2.30;;;;;;;38.24;24.88;98362.97;6120735;23;20186;-90
2022/08/16 09:45:03;;;;;;;6.00;3.35;;;;;;;38.18;24.25;98366.84;6130663;23;20155;-89
2022/08/16 09:47:28;;;;;;;4.07;2.28;;;;;;;38.27;25.36;98354.19;6157145;23;20135;-88
2022/08/16 09:50:20;;;;;;;3.88;2.03;;;;;;;38.36;25.24;98361.63;6147592;23;20205;-92
2022/08/16 09:52:48;;;;;;;3.97;2.20;;;;;;;38.42;24.55;98349.53;6159530;23;20158;-90
2022/08/16 09:55:16;;;;;;;4.80;2.03;;;;;;;38.52;24.80;98348.69;6160412;23;20300;-90
2022/08/16 09:57:42;;;;;;;4.25;2.67;;;;;;;38.87;24.36;98347.72;6159954;23;20154;-88
2022/08/16 10:00:09;;;;;;;4.90;2.78;;;;;;;39.00;24.50;98350.66;6185826;23;20169;-89
2022/08/16 10:02:36;;;;;;;5.55;2.58;;;;;;;39.29;24.64;98346.13;6186067;23;20185;-89
2022/08/16 10:05:07;;;;;;;3.60;2.17;;;;;;;39.11;23.23;98346.75;6186636;23;20146;-92
2022/08/16 10:07:33;;;;;;;3.42;2.03;;;;;;;39.25;24.10;98345.06;6160107;23;20182;-88
2022/08/16 10:09:59;;;;;;;3.05;1.80;;;;;;;39.24;23.73;98342.59;6185769;23;20146;-89
2022/08/16 10:15:13;;;;;;;3.85;2.13;;;;;;;39.27;22.10;98339.28;6186538;23;20448;-89
2022/08/16 10:17:41;;;;;;;3.88;2.13;;;;;;;39.21;24.21;98327.53;6159580;23;20229;-88
2022/08/16 10:20:10;;;;;;;2.78;1.42;;;;;;;39.27;22.63;98333.81;6185742;23;20575;-88
2022/08/16 10:22:41;;;;;;;4.03;1.85;;;;;;;39.24;23.24;98334.38;6186268;23;20197;-92
2022/08/16 10:25:07;;;;;;;3.13;1.80;;;;;;;39.17;23.07;98340.16;6159694;23;20159;-90
2022/08/16 10:27:36;;;;;;;3.15;1.88;;;;;;;39.43;23.85;98326.28;6185640;23;20228;-88
2022/08/16 10:30:04;;;;;;;3.50;2.03;;;;;;;39.38;23.01;98326.31;6160754;23;20220;-88
2022/08/16 10:32:30;;;;;;;3.70;1.90;;;;;;;39.60;23.36;98326.69;6186213;23;20146;-89
2022/08/16 10:34:56;;;;;;;5.20;1.83;;;;;;;39.80;23.30;98318.31;6185500;23;20481;-88
2022/08/16 10:37:21;;;;;;;4.07;2.40;;;;;;;40.07;22.40;98324.06;6159641;23;20161;-90
2022/08/16 10:39:49;;;;;;;3.50;1.88;;;;;;;39.91;21.83;98328.09;6159676;23;20600;-90
2022/08/16 10:42:16;;;;;;;2.47;1.58;;;;;;;39.80;22.31;98321.88;6185849;23;20201;-90
2022/08/16 10:44:42;;;;;;;4.35;1.80;;;;;;;40.06;22.43;98325.19;6158224;23;20229;-90
2022/08/16 10:47:08;;;;;;;4.18;2.45;;;;;;;40.01;23.03;98317.00;6159596;23;20161;-89
2022/08/16 10:49:35;;;;;;;4.03;2.30;;;;;;;39.90;22.04;98313.53;6185342;23;20161;-88
2022/08/16 10:52:01;;;;;;;5.05;1.63;;;;;;;39.96;22.46;98306.06;6185829;23;20211;-89
2022/08/16 10:54:26;;;;;;;3.75;1.70;;;;;;;40.36;22.55;98304.78;6159506;23;20241;-88
2022/08/16 10:56:54;;;;;;;3.25;1.60;;;;;;;40.11;21.80;98316.09;6185769;23;20154;-88
2022/08/16 10:59:24;;;;;;;4.25;1.70;;;;;;;39.81;22.44;98306.19;6185444;23;20576;-89
2022/08/16 11:01:49;;;;;;;3.05;1.80;;;;;;;39.78;22.18;98293.88;6185422;23;20150;-88
2022/08/16 11:04:14;;;;;;;3.42;1.63;;;;;;;39.92;22.16;98316.78;6160847;23;20232;-88
2022/08/16 11:06:49;;;;;;;3.28;1.98;;;;;;;39.97;20.95;98318.66;6185732;23;20159;-90
2022/08/16 11:09:14;;;;;;;6.40;2.28;;;;;;;39.52;21.75;98306.16;6186138;23;20228;-89
2022/08/16 11:11:40;;;;;;;2.97;1.80;;;;;;;39.45;21.80;98302.13;6159481;23;20185;-88
2022/08/16 11:14:05;;;;;;;2.05;1.27;;;;;;;39.95;22.12;98293.44;6185446;23;20558;-89
2022/08/16 11:16:32;;;;;;;3.10;1.70;;;;;;;39.96;20.99;98297.00;6185496;23;20229;-88
2022/08/16 11:19:04;;;;;;;5.00;2.42;;;;;;;39.92;20.96;98305.81;6185442;23;20218;-91
2022/08/16 11:21:29;;;;;;;4.63;2.25;;;;;;;39.95;21.78;98298.09;6186164;23;20213;-88
2022/08/16 11:23:55;;;;;;;4.35;1.98;;;;;;;40.39;20.99;98299.53;6185300;23;20562;-89
2022/08/16 11:26:21;;;;;;;3.90;2.17;;;;;;;40.58;21.32;98304.28;6159406;23;20245;-87
2022/08/16 11:28:49;;;;;;;3.53;1.70;;;;;;;40.57;21.22;98291.69;6185523;23;20216;-88
2022/08/16 11:31:15;;;;;;;3.58;2.00;;;;;;;40.21;21.57;98283.84;6187873;23;20564;-88
2022/08/16 11:33:44;;;;;;;3.22;2.03;;;;;;;40.08;21.29;98284.53;6161363;23;20181;-89
2022/08/16 11:36:09;;;;;;;6.03;2.28;;;;;;;39.53;21.64;98282.28;6161313;23;20552;-89
2022/08/16 11:38:35;;;;;;;3.30;1.60;;;;;;;39.55;21.59;98291.03;6187535;23;20211;-88
2022/08/16 11:41:01;;;;;;;3.33;1.98;;;;;;;39.59;21.84;98283.91;6161225;23;20186;-88
2022/08/16 11:43:29;;;;;;;3.80;2.10;;;;;;;39.71;22.07;98287.91;6187409;23;20602;-90
2022/08/16 11:45:57;;;;;;;3.35;1.90;;;;;;;39.68;21.04;98293.16;6161137;23;20221;-91
2022/08/16 11:48:24;;;;;;;3.67;2.15;;;;;;;39.76;22.60;98287.03;6187076;23;20146;-89
2022/08/16 11:50:50;;;;;;;3.67;1.90;;;;;;;39.99;21.19;98280.78;6161644;23;20162;-88
2022/08/16 11:53:18;;;;;;;3.33;1.85;;;;;;;39.93;20.73;98290.16;6186729;23;20178;-89
2022/08/16 11:55:43;;;;;;;3.10;1.85;;;;;;;40.02;20.97;98284.88;6187395;23;20233;-90
2022/08/16 11:58:09;;;;;;;3.13;1.83;;;;;;;39.82;21.89;98286.72;6187711;23;20185;-88
2022/08/16 12:00:38;;;;;;;5.93;2.50;;;;;;;40.09;20.98;98277.13;6186881;23;20472;-89
2022/08/16 12:03:03;;;;;;;2.55;1.58;;;;;;;40.31;21.46;98274.66;6187143;23;20178;-89
2022/08/16 12:05:29;;;;;;;3.42;2.05;;;;;;;40.25;21.25;98279.41;6187042;23;20696;-89
2022/08/16 12:07:55;;;;;;;4.10;2.20;;;;;;;40.13;20.35;98270.75;6186881;23;20247;-88
2022/08/16 12:10:28;;;;;;;3.25;1.80;;;;;;;39.61;20.73;98282.50;6186888;23;20161;-89
2022/08/16 12:12:54;;;;;;;3.03;1.88;;;;;;;39.82;21.13;98269.41;6186849;23;20139;-88
2022/08/16 12:15:20;;;;;;;4.65;2.47;;;;;;;39.74;21.21;98270.06;6186802;23;20146;-87
2022/08/16 12:17:49;;;;;;;2.63;1.65;;;;;;;39.88;20.90;98262.78;6186798;23;20217;-89
2022/08/16 12:20:24;;;;;;;5.90;2.28;;;;;;;40.07;21.45;98260.94;6186424;23;20597;-88
2022/08/16 12:22:51;;;;;;;3.30;2.00;;;;;;;39.99;21.53;98267.06;6186789;23;20546;-88
2022/08/16 12:25:18;;;;;;;3.80;1.88;;;;;;;39.60;21.92;98255.38;6160784;23;20150;-89
2022/08/16 12:27:46;;;;;;;3.85;2.30;;;;;;;39.58;21.55;98257.56;6186734;23;20174;-89
2022/08/16 12:30:15;;;;;;;3.60;1.52;;;;;;;39.72;21.40;98253.06;6186937;23;20224;-87
2022/08/16 12:32:41;;;;;;;2.50;1.60;;;;;;;39.89;21.13;98237.78;6186606;23;20147;-88
2022/08/16 12:35:11;;;;;;;3.10;1.70;;;;;;;40.06;21.11;98247.50;6160607;23;20530;-88
2022/08/16 12:37:37;;;;;;;2.35;1.40;;;;;;;40.10;21.55;98243.03;6186572;23;20160;-87
2022/08/16 12:40:06;;;;;;;2.50;1.48;;;;;;;40.07;20.95;98251.91;6160144;23;20189;-88
2022/08/16 12:42:32;;;;;;;4.88;2.20;;;;;;;39.87;20.98;98250.16;6186739;23;20602;-87
2022/08/16 12:44:57;;;;;;;3.17;2.10;;;;;;;39.98;21.58;98245.38;6186900;23;20146;-88
2022/08/16 12:50:07;;;;;;;4.30;1.75;;;;;;;39.92;21.52;98244.59;6186539;23;20296;-89
2022/08/16 12:52:33;;;;;;;4.72;1.63;;;;;;;40.00;21.11;98237.66;6186807;23;20221;-88
2022/08/16 12:54:59;;;;;;;3.00;1.60;;;;;;;40.37;20.67;98235.84;6186472;23;20150;-87
2022/08/16 12:57:25;;;;;;;3.33;1.80;;;;;;;40.06;21.74;98242.84;6160117;23;20581;-88
2022/08/16 12:59:51;;;;;;;3.38;2.15;;;;;;;39.88;21.69;98238.06;6160330;23;20154;-88
2022/08/16 13:02:18;;;;;;;2.72;1.55;;;;;;;39.93;22.51;98232.53;6186967;23;20170;-88
2022/08/16 13:04:44;;;;;;;2.72;1.45;;;;;;;40.20;21.95;98235.50;6186611;23;20154;-88
2022/08/16 13:07:10;;;;;;;2.85;1.73;;;;;;;40.56;21.92;98224.09;6160259;23;20248;-87
2022/08/16 13:09:45;;;;;;;4.13;2.40;;;;;;;40.81;21.29;98237.44;6186216;23;20526;-88
2022/08/16 13:12:23;;;;;;;5.05;2.25;;;;;;;41.05;20.56;98216.19;6186635;23;20184;-88
2022/08/16 13:14:49;;;;;;;5.10;1.90;;;;;;;41.02;20.85;98217.63;6186616;23;20154;-87
2022/08/16 13:17:20;;;;;;;3.33;1.88;;;;;;;40.96;20.36;98196.03;6186570;23;20157;-88
2022/08/16 13:19:47;;;;;;;2.90;1.70;;;;;;;41.24;20.63;98203.22;6186945;23;20145;-87
2022/08/16 13:22:13;;;;;;;3.38;1.88;;;;;;;41.38;20.64;98198.59;6160081;23;20210;-87
2022/08/16 13:24:39;;;;;;;3.88;1.33;;;;;;;41.53;20.86;98206.59;6185783;23;20567;-88
2022/08/16 13:27:04;;;;;;;4.18;2.05;;;;;;;41.46;20.20;98206.16;6186087;23;20480;-87
2022/08/16 13:29:30;;;;;;;6.07;2.00;;;;;;;41.24;19.83;98214.22;6185826;23;20575;-88
2022/08/16 13:31:55;;;;;;;2.70;1.60;;;;;;;41.52;19.99;98218.72;6161119;23;20150;-87
2022/08/16 13:34:21;;;;;;;3.53;1.80;;;;;;;41.55;20.30;98215.34;6186074;23;20522;-88
2022/08/16 13:36:46;;;;;;;3.72;2.00;;;;;;;41.31;20.56;98225.69;6185993;23;20571;-87
2022/08/16 13:39:12;;;;;;;3.35;2.38;;;;;;;40.97;21.27;98219.63;6186064;23;20146;-88
2022/08/16 13:41:37;;;;;;;4.00;2.58;;;;;;;40.80;21.95;98227.56;6186303;23;20177;-87
2022/08/16 13:44:03;;;;;;;3.63;2.22;;;;;;;40.83;21.44;98219.53;6159815;23;20186;-87
2022/08/16 13:46:31;;;;;;;3.72;2.30;;;;;;;40.77;21.08;98218.00;6185888;23;20176;-87
2022/08/16 13:48:57;;;;;;;4.28;2.35;;;;;;;40.58;22.25;98213.59;6180568;23;20175;-88
2022/08/16 13:51:23;;;;;;;4.75;2.50;;;;;;;40.24;22.00;98217.34;6156250;23;20163;-87
2022/08/16 13:53:55;;;;;;;4.35;2.35;;;;;;;40.21;22.82;98217.94;6156378;23;20143;-87
2022/08/16 13:56:22;;;;;;;3.63;2.58;;;;;;;40.22;22.91;98218.75;6130365;23;20159;-87
2022/08/16 13:58:48;;;;;;;5.13;2.88;;;;;;;40.00;23.98;98219.25;6156054;23;20151;-88
2022/08/16 14:01:15;;;;;;;4.93;2.88;;;;;;;39.92;23.58;98212.47;6156049;23;20147;-88
2022/08/16 14:03:41;;;;;;;4.55;2.75;;;;;;;39.92;23.07;98219.91;6156274;23;20262;-87
2022/08/16 14:06:10;;;;;;;3.72;2.40;;;;;;;39.78;23.03;98214.28;6156336;23;20175;-87
2022/08/16 14:08:40;;;;;;;4.60;2.75;;;;;;;39.85;23.25;98203.78;6155933;23;20154;-88
2022/08/16 14:11:06;;;;;;;4.60;2.50;;;;;;;40.14;23.21;98211.97;6155949;23;20162;-87
2022/08/16 14:13:33;;;;;;;4.45;2.65;;;;;;;40.59;23.18;98210.56;6155885;23;20147;-88
2022/08/16 14:15:59;;;;;;;4.70;2.80;;;;;;;40.70;23.23;98211.25;6130145;23;20155;-88
2022/08/16 14:18:24;;;;;;;4.53;2.72;;;;;;;40.49;23.32;98206.03;6155862;23;20634;-87
2022/08/16 14:20:50;;;;;;;4.18;2.85;;;;;;;40.38;23.51;98218.25;6130392;23;20151;-87
2022/08/16 14:23:16;;;;;;;4.10;2.42;;;;;;;40.16;23.71;98212.50;6156591;23;20182;-89
2022/08/16 14:25:42;;;;;;;4.07;2.50;;;;;;;40.21;23.40;98206.94;6130801;23;20159;-89
2022/08/16 14:28:30;;;;;;;4.43;3.03;;;;;;;39.97;24.16;98208.84;6152405;23;20155;-90
2022/08/16 14:31:09;;;;;;;4.18;2.60;;;;;;;39.71;24.28;98210.25;6152664;23;20438;-86
2022/08/16 14:33:34;;;;;;;4.65;3.20;;;;;;;39.36;24.95;98210.59;6128576;23;20208;-89
2022/08/16 14:36:00;;;;;;;4.93;2.67;;;;;;;38.95;24.60;98202.69;6154319;23;20151;-90
2022/08/16 14:38:25;;;;;;;5.18;2.20;;;;;;;38.71;25.36;98213.50;6154101;23;20202;-88
2022/08/16 14:40:51;;;;;;;5.15;2.78;;;;;;;38.34;25.38;98217.88;6155161;23;20578;-88
2022/08/16 14:43:16;;;;;;;5.63;2.70;;;;;;;38.01;24.88;98211.13;6154736;23;20179;-87
2022/08/16 14:45:42;;;;;;;3.25;2.40;;;;;;;37.93;24.71;98207.06;6155404;23;20159;-88
2022/08/16 14:48:07;;;;;;;4.28;2.30;;;;;;;37.77;24.60;98204.59;6129094;23;20306;-89
2022/08/16 14:50:34;;;;;;;3.45;2.60;;;;;;;37.81;24.79;98212.00;6153908;23;20170;-87
2022/08/16 14:53:07;;;;;;;4.03;2.55;;;;;;;37.87;24.61;98205.44;6154779;23;20230;-89
2022/08/16 14:55:36;;;;;;;4.90;2.80;;;;;;;37.44;24.99;98195.13;6127664;23;20607;-90
2022/08/16 14:58:04;;;;;;;4.53;2.70;;;;;;;37.31;25.70;98201.13;6129789;23;20165;-94
2022/08/16 15:00:32;;;;;;;4.43;2.53;;;;;;;37.03;25.40;98215.38;6154999;23;20151;-89
2022/08/16 15:03:00;;;;;;;4.00;2.15;;;;;;;37.01;26.45;98206.59;6154574;23;20595;-89
2022/08/16 15:05:27;;;;;;;5.72;2.30;;;;;;;37.18;26.43;98218.09;6155198;23;20233;-89
2022/08/16 15:07:55;;;;;;;3.38;2.03;;;;;;;37.24;27.12;98219.75;6107634;23;20773;-89
2022/08/16 15:10:22;;;;;;;3.28;2.00;;;;;;;36.82;27.83;98226.22;6131446;23;20489;-88
2022/08/16 15:12:52;;;;;;;3.25;1.63;;;;;;;36.74;28.00;98229.50;6131776;23;20237;-89
2022/08/16 15:15:29;;;;;;;3.80;1.95;;;;;;;36.60;28.43;98228.38;6133598;23;20513;-88
2022/08/16 15:17:56;;;;;;;3.67;2.20;;;;;;;36.41;28.51;98229.94;6157009;23;20150;-89
2022/08/16 15:20:31;;;;;;;3.08;1.92;;;;;;;36.37;28.53;98228.84;6131583;23;20166;-89
2022/08/16 15:22:59;;;;;;;3.63;1.85;;;;;;;36.39;28.31;98232.13;6133369;23;20167;-89
2022/08/16 15:25:45;;;;;;;3.92;2.22;;;;;;;36.03;28.85;98233.91;6157403;23;20162;-90
2022/08/16 15:28:14;;;;;;;4.65;2.60;;;;;;;36.00;29.09;98233.56;6153380;23;20163;-92
2022/08/16 15:30:41;;;;;;;4.00;2.30;;;;;;;35.64;29.69;98233.38;6130424;23;20155;-88
2022/08/16 15:33:10;;;;;;;4.90;2.83;;;;;;;35.77;30.15;98230.16;6131498;23;20147;-89
2022/08/16 15:35:41;;;;;;;3.42;2.00;;;;;;;35.87;30.03;98240.34;6107281;23;20197;-91
2022/08/16 15:38:09;;;;;;;3.97;2.60;;;;;;;35.93;29.74;98230.28;6132211;23;20166;-89
2022/08/16 15:40:37;;;;;;;3.85;2.25;;;;;;;35.89;30.04;98223.69;6130961;23;20257;-90
2022/08/16 15:43:06;;;;;;;3.60;2.15;;;;;;;35.84;29.94;98229.94;6155406;23;20625;-89
2022/08/16 15:48:25;;;;;;;4.50;2.42;;;;;;;35.58;30.20;98223.53;6157554;23;20141;-90
2022/08/16 15:50:56;;;;;;;5.50;2.95;;;;;;;35.56;29.87;98225.69;6157199;23;20575;-89
2022/08/16 15:53:24;;;;;;;7.50;3.03;;;;;;;35.61;30.02;98222.19;6131408;23;20147;-89
2022/08/16 15:55:50;;;;;;;4.20;2.40;;;;;;;35.71;29.95;98214.88;6131215;23;20572;-88
2022/08/16 15:58:18;;;;;;;4.10;2.22;;;;;;;35.76;30.12;98216.81;6157163;23;20206;-90
2022/08/16 16:00:45;;;;;;;4.53;2.40;;;;;;;35.59;30.25;98222.44;6131204;23;20476;-90
2022/08/16 16:03:16;;;;;;;3.28;1.67;;;;;;;35.22;31.09;98224.34;6157464;23;20185;-88
2022/08/16 16:05:46;;;;;;;4.55;2.67;;;;;;;35.11;31.07;98228.88;6158119;23;20539;-89
2022/08/16 16:08:25;;;;;;;3.95;2.78;;;;;;;34.98;30.67;98231.19;6157135;23;20574;-90
2022/08/16 16:10:58;;;;;;;4.88;2.15;;;;;;;34.97;29.88;98232.25;6157585;23;20132;-90
2022/08/16 16:13:26;;;;;;;3.63;1.75;;;;;;;34.59;29.87;98236.78;6132485;23;20165;-91
2022/08/16 16:15:55;;;;;;;4.22;2.00;;;;;;;34.36;30.23;98228.88;6157701;23;20151;-89
2022/08/16 16:18:28;;;;;;;3.67;1.67;;;;;;;34.14;29.99;98238.97;6131154;23;20158;-91
2022/08/16 16:20:59;;;;;;;3.88;1.92;;;;;;;33.96;31.01;98244.69;6131157;23;20244;-91
2022/08/16 16:23:31;;;;;;;3.35;2.13;;;;;;;33.86;31.11;98233.66;6131166;23;20493;-90
2022/08/16 16:25:59;;;;;;;3.60;1.80;;;;;;;33.70;31.49;98226.38;6157615;23;20527;-89
2022/08/16 16:28:29;;;;;;;3.47;2.17;;;;;;;33.44;32.48;98235.22;6157231;23;20179;-89
2022/08/16 16:30:57;;;;;;;4.90;1.80;;;;;;;32.97;33.20;98224.63;6132169;23;20163;-90
2022/08/16 16:33:26;;;;;;;4.68;2.20;;;;;;;33.04;33.60;98233.47;6156770;23;20143;-88
2022/08/16 16:35:56;;;;;;;3.78;1.90;;;;;;;33.14;33.90;98228.22;6156875;23;20230;-88
2022/08/16 16:38:29;;;;;;;4.45;2.25;;;;;;;32.89;34.68;98227.75;6157338;23;20301;-89
2022/08/16 16:41:01;;;;;;;4.28;2.50;;;;;;;32.76;35.20;98233.47;6156703;23;20481;-90
2022/08/16 16:43:29;;;;;;;3.72;2.10;;;;;;;32.65;35.51;98248.75;6131050;23;20262;-88
2022/08/16 16:45:57;;;;;;;4.47;2.30;;;;;;;32.51;35.86;98247.38;6144426;23;20161;-89
2022/08/16 16:48:23;;;;;;;5.05;2.75;;;;;;;32.37;35.85;98256.03;6130706;23;20158;-89
2022/08/16 16:50:50;;;;;;;4.25;2.35;;;;;;;32.31;35.77;98246.16;6158938;23;20499;-90
2022/08/16 16:53:18;;;;;;;6.07;2.65;;;;;;;32.40;35.83;98250.13;6186886;23;20681;-91
2022/08/16 16:55:47;;;;;;;8.68;2.97;;;;;;;32.27;36.13;98266.69;6186193;23;20597;-90